Time;durP1;ratioP1;P1;durP2;ratioP2;P2;SDS_P1;SDS_P2;PMS_P1;PMS_P2;Temp;Humidity;BMP_temperature;BMP_pressure;BME280_temperature;BME280_humidity;BME280_pressure;Samples;Min_cycle;Max_cycle;Signal;HPM_P1;HPM_P2
2023/09/11 00:00:44;;;;;;;12.50;9.20;;;;;;;18.14;88.51;98034.68;106767;1277;22637;-78
2023/09/11 00:03:32;;;;;;;12.50;9.40;;;;;;;18.14;88.92;98032.90;106726;1270;25399;-78
2023/09/11 00:06:04;;;;;;;12.80;8.80;;;;;;;18.10;89.28;98029.52;107223;1278;25360;-78
2023/09/11 00:08:33;;;;;;;11.90;9.20;;;;;;;18.06;89.43;98030.64;107245;1259;23383;-77
2023/09/11 00:11:03;;;;;;;13.80;9.80;;;;;;;18.03;89.65;98029.86;106773;1278;24185;-78
2023/09/11 00:13:31;;;;;;;11.60;8.20;;;;;;;18.02;89.64;98032.38;106611;1265;22455;-78
2023/09/11 00:15:59;;;;;;;12.70;8.60;;;;;;;18.03;89.82;98030.86;107230;1277;23018;-77
2023/09/11 00:18:27;;;;;;;10.90;8.90;;;;;;;17.99;89.74;98026.85;107217;1266;22527;-78
2023/09/11 00:20:55;;;;;;;10.70;9.60;;;;;;;17.96;89.64;98023.08;106857;1277;25332;-78
2023/09/11 00:23:24;;;;;;;13.70;9.20;;;;;;;17.87;89.53;98020.16;106654;1278;25461;-79
2023/09/11 00:25:52;;;;;;;11.70;9.00;;;;;;;17.78;89.81;98019.64;107188;1275;24235;-79
2023/09/11 00:28:20;;;;;;;12.30;8.50;;;;;;;17.76;90.04;98018.65;106776;1279;210029;-78
2023/09/11 00:30:48;;;;;;;12.20;9.00;;;;;;;17.80;90.33;98014.28;106657;1267;24362;-78
2023/09/11 00:33:16;;;;;;;12.60;8.60;;;;;;;17.82;90.34;98016.61;106698;1278;22546;-78
2023/09/11 00:35:45;;;;;;;12.40;9.10;;;;;;;17.86;90.49;98012.20;107138;1279;24282;-78
2023/09/11 00:38:13;;;;;;;9.60;8.10;;;;;;;17.92;90.50;98012.06;107053;1272;22540;-78
2023/09/11 00:40:42;;;;;;;11.30;8.70;;;;;;;17.95;90.67;98009.14;106716;1265;22537;-77
2023/09/11 00:43:10;;;;;;;12.40;7.70;;;;;;;17.99;90.59;98008.30;106916;1278;22534;-78
2023/09/11 00:45:38;;;;;;;12.50;8.40;;;;;;;18.00;90.86;98009.27;106622;1271;22550;-78
2023/09/11 00:48:08;;;;;;;12.10;9.00;;;;;;;17.96;90.82;98003.86;106633;1278;22539;-80
2023/09/11 00:50:37;;;;;;;12.10;9.00;;;;;;;17.93;90.82;98005.87;106934;1278;22750;-79
2023/09/11 00:53:06;;;;;;;12.60;8.60;;;;;;;17.93;90.80;98000.98;107096;1278;25282;-79
2023/09/11 00:55:36;;;;;;;11.20;7.70;;;;;;;17.94;90.74;98001.29;107059;1278;22649;-79
2023/09/11 00:58:05;;;;;;;11.60;8.20;;;;;;;17.96;90.76;98001.36;107045;1278;22635;-79
2023/09/11 01:00:33;;;;;;;14.70;8.50;;;;;;;17.95;90.99;98001.32;107026;1272;25492;-80
2023/09/11 01:03:01;;;;;;;11.70;8.30;;;;;;;17.99;91.61;98002.98;106964;1265;22534;-79
2023/09/11 01:05:30;;;;;;;14.30;8.40;;;;;;;18.04;91.82;98000.73;107061;1278;22632;-79
2023/09/11 01:07:59;;;;;;;21.20;7.60;;;;;;;18.06;91.19;98000.79;106930;1278;22574;-79
2023/09/11 01:10:27;;;;;;;13.90;7.40;;;;;;;18.07;91.00;98001.37;107011;1278;24458;-80
2023/09/11 01:12:55;;;;;;;12.20;8.10;;;;;;;18.07;90.55;98003.02;106967;1279;25555;-80
2023/09/11 01:15:29;;;;;;;13.80;8.60;;;;;;;18.01;90.38;98003.21;106910;1268;22525;-80
2023/09/11 01:18:14;;;;;;;9.50;8.10;;;;;;;17.93;90.38;97998.39;106763;1278;24375;-79
2023/09/11 01:21:00;;;;;;;;;;;;;;;17.88;90.44;97996.92;106755;1279;22553;-80
2023/09/11 01:23:50;;;;;;;12.50;8.60;;;;;;;17.87;90.41;98000.94;106557;1278;25294;-80
2023/09/11 01:26:24;;;;;;;10.70;8.40;;;;;;;17.90;90.47;97996.84;106978;1278;22590;-80
2023/09/11 01:29:04;;;;;;;;;;;;;;;17.90;90.19;97996.61;106791;1275;22560;-80
2023/09/11 01:31:34;;;;;;;11.40;8.40;;;;;;;17.88;90.19;97995.89;107076;1264;22576;-79
2023/09/11 01:34:04;;;;;;;11.80;9.40;;;;;;;17.86;90.11;97988.45;107129;1263;25335;-79
2023/09/11 01:36:32;;;;;;;11.70;8.50;;;;;;;17.82;90.12;97988.17;106999;1269;22756;-79
2023/09/11 01:39:00;;;;;;;11.20;8.20;;;;;;;17.78;90.08;97987.87;106837;1278;22569;-79
2023/09/11 01:41:35;;;;;;;11.40;7.70;;;;;;;17.75;90.13;97986.69;106702;1278;22538;-79
2023/09/11 01:44:23;;;;;;;12.60;7.80;;;;;;;17.74;90.09;97987.98;107215;1278;22530;-79
2023/09/11 01:46:53;;;;;;;9.80;7.70;;;;;;;17.68;90.24;97988.36;106683;1278;22652;-79
2023/09/11 01:49:24;;;;;;;10.40;8.10;;;;;;;17.66;90.30;97985.66;107216;1267;22630;-79
2023/09/11 01:51:53;;;;;;;12.50;9.30;;;;;;;17.63;90.54;97985.02;107310;1266;22535;-79
2023/09/11 01:54:23;;;;;;;8.70;7.70;;;;;;;17.62;90.48;97983.98;107126;1276;25389;-79
2023/09/11 01:56:51;;;;;;;10.90;7.60;;;;;;;17.65;90.59;97984.45;106700;1277;23044;-79
2023/09/11 01:59:19;;;;;;;8.30;7.00;;;;;;;17.71;90.69;97982.37;106803;1277;22683;-79
2023/09/11 02:01:47;;;;;;;12.50;8.10;;;;;;;17.78;90.71;97980.27;106728;1260;22587;-79
2023/09/11 02:04:15;;;;;;;13.40;8.50;;;;;;;17.84;90.70;97975.92;107026;1277;22536;-79
2023/09/11 02:06:44;;;;;;;9.00;8.10;;;;;;;17.78;89.99;97977.52;107100;1266;24457;-80
2023/09/11 02:09:12;;;;;;;13.10;9.60;;;;;;;17.66;90.24;97974.45;107013;1275;25498;-81
2023/09/11 02:11:40;;;;;;;11.40;8.80;;;;;;;17.53;89.82;97979.50;106940;1275;25590;-81
2023/09/11 02:14:08;;;;;;;12.60;10.60;;;;;;;17.22;89.60;97982.95;106592;1273;23921;-80
2023/09/11 02:16:36;;;;;;;12.20;9.40;;;;;;;16.91;90.23;97984.44;106624;1275;22865;-80
2023/09/11 02:19:04;;;;;;;11.60;9.50;;;;;;;16.68;90.64;97979.30;106943;1266;23002;-80
2023/09/11 02:21:32;;;;;;;12.50;10.90;;;;;;;16.52;90.99;97977.57;106948;1278;24273;-80
2023/09/11 02:24:00;;;;;;;11.10;9.70;;;;;;;16.38;91.12;97976.60;107101;1268;23228;-80
2023/09/11 02:26:28;;;;;;;14.20;9.70;;;;;;;16.20;91.79;97974.34;106944;1278;22536;-81
2023/09/11 02:28:59;;;;;;;14.40;9.60;;;;;;;15.96;92.76;97971.80;107206;1277;22844;-81
2023/09/11 02:31:27;;;;;;;16.80;10.90;;;;;;;15.76;93.54;97976.67;107163;1269;22718;-81
2023/09/11 02:33:56;;;;;;;12.00;10.50;;;;;;;15.64;93.62;97976.14;106892;1272;22545;-80
2023/09/11 02:36:24;;;;;;;12.90;11.00;;;;;;;15.61;94.12;97974.75;107015;1266;25278;-80
2023/09/11 02:38:52;;;;;;;12.50;11.20;;;;;;;15.48;94.90;97973.36;107017;1273;26052;-80
2023/09/11 02:41:20;;;;;;;12.80;11.50;;;;;;;15.39;95.70;97973.98;107241;1255;22762;-80
2023/09/11 02:43:48;;;;;;;13.60;9.70;;;;;;;15.31;95.48;97973.61;107098;1273;22719;-80
2023/09/11 02:46:16;;;;;;;14.50;10.80;;;;;;;15.26;95.92;97971.77;107109;1263;22602;-79
2023/09/11 02:48:46;;;;;;;12.90;10.90;;;;;;;15.20;96.89;97971.95;106696;1268;25094;-80
2023/09/11 02:51:15;;;;;;;13.80;10.80;;;;;;;15.16;97.83;97969.67;106935;1272;25409;-80
2023/09/11 02:53:43;;;;;;;14.70;10.90;;;;;;;15.10;98.85;97970.69;107033;1278;22929;-83
2023/09/11 02:56:11;;;;;;;13.80;12.00;;;;;;;15.06;99.86;97969.65;107079;1268;22543;-80
2023/09/11 02:58:39;;;;;;;16.90;11.90;;;;;;;15.00;100.00;97973.77;106621;1278;25405;-81
2023/09/11 03:01:07;;;;;;;14.50;11.40;;;;;;;14.91;100.00;97970.86;107097;1269;22568;-81
2023/09/11 03:03:36;;;;;;;16.60;11.20;;;;;;;14.84;100.00;97971.27;107230;1266;24396;-81
2023/09/11 03:06:05;;;;;;;12.80;11.50;;;;;;;14.80;100.00;97971.71;107096;1275;22543;-80
2023/09/11 03:08:33;;;;;;;12.10;10.80;;;;;;;14.83;100.00;97972.42;106865;1269;22612;-80
2023/09/11 03:11:09;;;;;;;13.70;11.20;;;;;;;14.87;100.00;97970.52;106884;1278;24357;-80
2023/09/11 03:13:38;;;;;;;11.70;10.50;;;;;;;14.85;100.00;97970.52;106654;1269;24407;-81
2023/09/11 03:16:09;;;;;;;13.10;11.80;;;;;;;14.83;100.00;97968.98;107069;1263;25393;-83
2023/09/11 03:18:38;;;;;;;13.40;11.40;;;;;;;14.83;100.00;97968.04;107188;1278;22547;-81
2023/09/11 03:21:07;;;;;;;12.60;11.40;;;;;;;14.83;100.00;97968.56;107279;1278;22758;-80
2023/09/11 03:23:36;;;;;;;12.60;11.00;;;;;;;14.80;100.00;97969.52;107113;1278;25359;-81
2023/09/11 03:26:12;;;;;;;12.50;11.40;;;;;;;14.73;100.00;97965.53;107120;1266;22528;-81
2023/09/11 03:28:49;;;;;;;14.40;10.10;;;;;;;14.67;100.00;97970.08;107060;1278;22581;-81
2023/09/11 03:31:22;;;;;;;12.80;10.50;;;;;;;14.65;100.00;97971.17;107016;1266;22630;-81
2023/09/11 03:33:51;;;;;;;15.20;11.80;;;;;;;14.64;100.00;97966.23;107143;1275;22578;-81
2023/09/11 03:36:19;;;;;;;14.20;12.80;;;;;;;14.65;100.00;97965.59;107064;1278;24213;-81
2023/09/11 03:38:47;;;;;;;12.20;11.10;;;;;;;14.73;100.00;97962.48;106983;1278;24383;-80
2023/09/11 03:41:16;;;;;;;10.40;9.40;;;;;;;14.79;100.00;97957.85;107212;1277;22920;-80
2023/09/11 03:43:45;;;;;;;12.80;11.50;;;;;;;15.04;100.00;97960.88;107129;1278;22642;-81
2023/09/11 03:46:14;;;;;;;12.10;10.90;;;;;;;15.12;100.00;97959.66;107105;1277;22552;-81
2023/09/11 03:48:43;;;;;;;10.90;9.80;;;;;;;15.14;100.00;97955.72;107152;1275;23274;-82
2023/09/11 03:51:13;;;;;;;10.90;9.80;;;;;;;15.45;100.00;97955.84;106650;1272;22769;-81
2023/09/11 03:53:43;;;;;;;12.70;10.10;;;;;;;15.79;100.00;97956.40;107030;1279;22542;-82
2023/09/11 03:56:17;;;;;;;12.20;9.80;;;;;;;15.99;100.00;97954.16;107159;1257;22548;-81
2023/09/11 03:58:45;;;;;;;11.40;10.20;;;;;;;15.98;100.00;97953.51;107092;1266;23876;-81
2023/09/11 04:01:14;;;;;;;11.10;10.00;;;;;;;15.74;100.00;97948.50;107054;1278;22562;-81
2023/09/11 04:03:43;;;;;;;14.10;10.40;;;;;;;15.55;100.00;97946.77;107217;1278;22647;-82
2023/09/11 04:06:11;;;;;;;12.50;11.30;;;;;;;15.32;100.00;97946.11;107204;1278;22723;-81
2023/09/11 04:08:39;;;;;;;12.60;10.50;;;;;;;15.09;100.00;97947.52;107308;1273;22636;-80
2023/09/11 04:11:09;;;;;;;12.20;11.00;;;;;;;14.93;100.00;97950.23;107199;1278;24266;-80
2023/09/11 04:13:37;;;;;;;11.90;10.80;;;;;;;14.81;100.00;97950.05;107054;1270;23882;-81
2023/09/11 04:16:05;;;;;;;11.40;10.30;;;;;;;14.69;100.00;97948.64;107174;1272;22639;-81
2023/09/11 04:18:33;;;;;;;12.20;10.90;;;;;;;14.62;100.00;97951.05;107152;1272;22673;-81
2023/09/11 04:21:03;;;;;;;12.10;10.90;;;;;;;14.55;100.00;97946.35;107086;1273;22915;-80
2023/09/11 04:23:32;;;;;;;11.50;9.90;;;;;;;14.58;100.00;97952.27;106971;1263;22564;-82
2023/09/11 04:26:00;;;;;;;12.20;10.90;;;;;;;14.62;100.00;97950.16;107220;1278;22609;-80
2023/09/11 04:28:28;;;;;;;12.30;11.10;;;;;;;14.64;100.00;97948.10;106841;1278;24228;-80
2023/09/11 04:30:56;;;;;;;12.10;10.90;;;;;;;14.62;100.00;97946.13;107360;1271;22661;-79
2023/09/11 04:33:27;;;;;;;14.30;10.60;;;;;;;14.60;100.00;97944.29;106586;1273;22554;-81
2023/09/11 04:35:56;;;;;;;12.20;10.90;;;;;;;14.56;100.00;97943.50;107252;1275;22535;-81
2023/09/11 04:38:24;;;;;;;11.80;10.70;;;;;;;14.52;100.00;97942.11;106962;1266;24202;-79
2023/09/11 04:40:57;;;;;;;12.20;11.00;;;;;;;14.50;100.00;97941.39;106532;1278;25318;-79
2023/09/11 04:43:26;;;;;;;11.70;10.60;;;;;;;14.50;100.00;97945.88;107277;1275;24315;-79
2023/09/11 04:45:54;;;;;;;14.40;10.10;;;;;;;14.51;100.00;97940.94;107211;1277;25074;-79
2023/09/11 04:48:22;;;;;;;11.80;10.70;;;;;;;14.56;100.00;97938.63;107055;1276;26640;-80
2023/09/11 04:50:51;;;;;;;12.00;10.80;;;;;;;14.59;100.00;97938.42;107150;1275;22600;-79
2023/09/11 04:53:19;;;;;;;12.80;10.90;;;;;;;14.59;100.00;97935.59;107197;1274;22766;-80
2023/09/11 04:55:47;;;;;;;13.00;10.30;;;;;;;14.60;100.00;97933.35;106951;1276;23267;-79
2023/09/11 04:58:16;;;;;;;12.30;10.50;;;;;;;14.59;100.00;97934.23;106823;1277;25281;-80
2023/09/11 05:00:45;;;;;;;13.80;10.20;;;;;;;14.60;100.00;97933.77;107298;1270;22804;-80
2023/09/11 05:03:13;;;;;;;14.00;10.60;;;;;;;14.61;100.00;97931.31;107243;1276;22639;-80
2023/09/11 05:05:41;;;;;;;12.80;11.50;;;;;;;14.60;100.00;97928.23;107047;1278;22740;-80
2023/09/11 05:08:11;;;;;;;11.10;10.10;;;;;;;14.59;100.00;97931.20;107054;1276;25287;-80
2023/09/11 05:10:44;;;;;;;13.30;11.90;;;;;;;14.65;100.00;97931.55;107235;1270;24323;-80
2023/09/11 05:13:13;;;;;;;10.70;9.30;;;;;;;14.80;100.00;97936.52;107145;1278;22516;-78
2023/09/11 05:15:42;;;;;;;14.50;9.60;;;;;;;15.22;100.00;97939.14;106773;1271;22554;-78
2023/09/11 05:18:11;;;;;;;10.30;9.10;;;;;;;15.66;100.00;97936.93;107025;1277;22635;-78
2023/09/11 05:20:39;;;;;;;11.20;9.70;;;;;;;16.09;100.00;97937.52;107322;1275;22603;-78
2023/09/11 05:23:08;;;;;;;10.00;8.70;;;;;;;16.46;100.00;97936.70;107073;1278;26625;-78
2023/09/11 05:25:39;;;;;;;10.90;8.10;;;;;;;16.78;100.00;97933.76;107176;1275;22527;-78
2023/09/11 05:28:07;;;;;;;12.40;10.00;;;;;;;17.10;100.00;97934.48;107147;1266;22587;-78
2023/09/11 05:30:34;;;;;;;9.50;8.50;;;;;;;17.35;100.00;97932.48;106963;1273;25373;-77
2023/09/11 05:33:03;;;;;;;10.00;8.90;;;;;;;17.56;100.00;97934.13;107010;1269;22578;-77
2023/09/11 05:35:31;;;;;;;11.20;9.70;;;;;;;17.76;100.00;97930.27;107011;1275;22749;-78
2023/09/11 05:38:00;;;;;;;11.50;8.80;;;;;;;17.92;100.00;97932.31;107058;1275;22643;-77
2023/09/11 05:40:28;;;;;;;13.00;8.90;;;;;;;18.08;100.00;97929.98;107162;1276;22579;-77
2023/09/11 05:42:56;;;;;;;10.00;9.00;;;;;;;18.25;100.00;97925.13;106628;1279;25483;-78
2023/09/11 05:45:24;;;;;;;9.70;8.70;;;;;;;18.43;100.00;97928.56;107063;1278;23810;-78
2023/09/11 05:47:52;;;;;;;10.30;9.00;;;;;;;18.55;100.00;97927.27;107058;1263;24325;-78
2023/09/11 05:50:20;;;;;;;12.40;8.30;;;;;;;18.68;100.00;97923.67;107012;1259;22554;-78
2023/09/11 05:52:48;;;;;;;11.30;8.80;;;;;;;18.82;100.00;97926.00;106676;1278;22646;-78
2023/09/11 05:55:16;;;;;;;13.80;9.50;;;;;;;18.95;100.00;97925.40;106706;1273;22573;-78
2023/09/11 05:57:44;;;;;;;13.40;9.70;;;;;;;19.10;100.00;97924.81;106716;1272;22665;-79
2023/09/11 06:00:13;;;;;;;13.90;9.00;;;;;;;19.23;100.00;97924.41;107178;1264;22654;-78
2023/09/11 06:02:44;;;;;;;12.50;9.20;;;;;;;19.36;100.00;97923.45;106696;1278;23064;-78
2023/09/11 06:05:13;;;;;;;11.00;9.30;;;;;;;19.48;100.00;97924.30;106605;1275;22528;-77
2023/09/11 06:07:41;;;;;;;13.90;10.00;;;;;;;19.63;100.00;97923.84;106884;1264;22609;-79
2023/09/11 06:10:12;;;;;;;14.20;9.60;;;;;;;19.76;100.00;97926.86;106668;1269;22640;-78
2023/09/11 06:12:40;;;;;;;13.00;10.00;;;;;;;19.88;100.00;97924.70;106833;1278;24410;-79
2023/09/11 06:15:08;;;;;;;11.40;10.30;;;;;;;20.01;100.00;97925.48;106773;1278;22825;-77
2023/09/11 06:17:37;;;;;;;14.00;10.50;;;;;;;20.12;100.00;97926.33;106764;1278;24238;-77
2023/09/11 06:20:15;;;;;;;11.30;8.90;;;;;;;20.24;100.00;97924.23;106693;1278;22634;-77
2023/09/11 06:22:44;;;;;;;12.80;8.40;;;;;;;20.36;100.00;97927.75;106734;1266;22652;-78
2023/09/11 06:25:12;;;;;;;14.60;8.60;;;;;;;20.48;100.00;97926.56;106573;1270;22655;-78
2023/09/11 06:27:41;;;;;;;13.10;10.70;;;;;;;20.60;100.00;97924.77;106936;1276;24334;-78
2023/09/11 06:30:09;;;;;;;10.70;8.60;;;;;;;20.71;100.00;97923.00;106660;1264;22542;-77
2023/09/11 06:32:38;;;;;;;10.60;8.90;;;;;;;20.81;100.00;97925.67;106560;1270;25247;-78
2023/09/11 06:35:06;;;;;;;10.80;9.20;;;;;;;20.92;100.00;97924.75;107043;1269;22535;-78
2023/09/11 06:37:34;;;;;;;13.20;10.20;;;;;;;21.01;100.00;97926.86;107054;1278;22507;-78
2023/09/11 06:40:07;;;;;;;15.10;9.80;;;;;;;21.09;100.00;97925.20;106648;1278;22830;-78
2023/09/11 06:42:36;;;;;;;10.70;9.10;;;;;;;21.24;100.00;97925.50;107248;1265;25280;-79
2023/09/11 06:45:07;;;;;;;11.80;9.50;;;;;;;21.33;100.00;97923.60;107129;1278;22553;-77
2023/09/11 06:47:35;;;;;;;9.80;8.80;;;;;;;21.43;99.96;97928.55;106699;1278;23152;-78
2023/09/11 06:50:03;;;;;;;11.20;9.50;;;;;;;21.53;99.95;97927.36;107079;1278;22569;-78
2023/09/11 06:52:38;;;;;;;10.30;9.10;;;;;;;21.60;98.92;97932.00;106619;1278;22776;-78
2023/09/11 06:55:07;;;;;;;10.60;9.40;;;;;;;21.58;98.07;97928.91;107012;1269;22612;-78
2023/09/11 06:57:41;;;;;;;10.20;9.10;;;;;;;21.48;97.03;97929.87;106960;1278;25288;-78
2023/09/11 07:00:11;;;;;;;12.00;8.60;;;;;;;21.41;96.72;97931.58;106956;1278;22538;-77
2023/09/11 07:02:46;;;;;;;;;;;;;;;21.45;96.82;97934.38;106927;1278;22729;-78
2023/09/11 07:05:16;;;;;;;11.80;8.40;;;;;;;21.47;96.39;97935.73;106740;1276;24240;-78
2023/09/11 07:07:44;;;;;;;11.10;8.10;;;;;;;21.52;96.03;97934.08;107026;1278;22539;-78
2023/09/11 07:10:15;;;;;;;9.90;7.50;;;;;;;21.52;94.69;97937.21;107076;1278;25301;-78
2023/09/11 07:12:53;;;;;;;10.00;8.50;;;;;;;21.52;93.72;97938.77;107012;1273;22539;-78
2023/09/11 07:15:21;;;;;;;9.60;8.60;;;;;;;21.54;93.01;97934.27;107100;1276;24416;-77
2023/09/11 07:17:51;;;;;;;9.90;8.40;;;;;;;21.59;91.97;97935.51;106623;1266;24297;-77
2023/09/11 07:20:20;;;;;;;13.80;8.20;;;;;;;21.62;92.12;97936.33;106534;1263;24186;-76
2023/09/11 07:22:48;;;;;;;12.90;8.20;;;;;;;21.69;92.19;97933.69;107080;1268;22541;-77
2023/09/11 07:25:22;;;;;;;16.40;8.40;;;;;;;21.78;91.95;97934.68;107044;1256;22609;-79
2023/09/11 07:27:54;;;;;;;11.00;8.00;;;;;;;21.84;91.44;97933.02;106661;1278;22620;-78
2023/09/11 07:30:22;;;;;;;14.30;7.40;;;;;;;21.96;91.15;97931.45;106954;1271;25485;-78
2023/09/11 07:32:52;;;;;;;12.40;7.90;;;;;;;22.11;90.95;97931.30;107143;1263;22628;-78
2023/09/11 07:35:21;;;;;;;11.80;7.60;;;;;;;22.22;90.41;97931.63;107191;1275;22542;-78
2023/09/11 07:37:49;;;;;;;16.00;9.30;;;;;;;22.32;90.03;97929.78;106962;1278;22552;-78
2023/09/11 07:40:18;;;;;;;11.00;7.10;;;;;;;22.45;89.53;97927.48;106963;1276;24445;-78
2023/09/11 07:42:46;;;;;;;9.50;7.00;;;;;;;22.57;88.97;97926.44;107197;1276;22542;-77
2023/09/11 07:45:14;;;;;;;10.90;7.60;;;;;;;22.72;88.61;97926.57;106727;1264;22792;-79
2023/09/11 07:47:42;;;;;;;12.30;7.10;;;;;;;22.84;88.45;97926.76;107169;1276;25320;-79
2023/09/11 07:50:10;;;;;;;13.00;7.40;;;;;;;22.95;88.03;97928.05;106808;1272;22679;-77
2023/09/11 07:52:38;;;;;;;13.90;7.70;;;;;;;23.05;87.21;97924.61;107068;1270;22566;-78
2023/09/11 07:55:07;;;;;;;8.60;7.10;;;;;;;23.10;86.61;97917.96;106760;1276;24069;-78
2023/09/11 07:57:35;;;;;;;13.70;7.90;;;;;;;23.19;85.34;97919.13;107194;1270;22546;-78
2023/09/11 08:00:04;;;;;;;11.20;7.60;;;;;;;23.26;85.40;97919.20;107116;1267;22654;-78
2023/09/11 08:02:33;;;;;;;12.90;7.40;;;;;;;23.30;85.11;97916.77;107185;1278;24376;-78
2023/09/11 08:05:02;;;;;;;13.10;7.80;;;;;;;23.37;84.86;97917.91;106732;1278;23157;-79
2023/09/11 08:07:30;;;;;;;9.10;7.00;;;;;;;23.41;83.46;97913.86;107056;1270;25288;-77
2023/09/11 08:10:19;;;;;;;9.10;7.50;;;;;;;23.42;82.23;97912.69;107103;1278;22599;-77
2023/09/11 08:13:29;;;;;;;13.30;7.70;;;;;;;23.46;80.44;97914.59;106497;1285;25338;-77
2023/09/11 08:16:09;;;;;;;9.50;7.30;;;;;;;23.49;78.90;97916.43;106539;1276;25328;-77
2023/09/11 08:18:37;;;;;;;13.70;7.40;;;;;;;23.54;77.87;97912.14;106147;1271;24217;-78
2023/09/11 08:21:05;;;;;;;15.60;7.90;;;;;;;23.62;78.49;97914.62;106141;1283;22484;-77
2023/09/11 08:23:34;;;;;;;13.70;7.30;;;;;;;23.66;77.34;97914.40;106276;1277;22650;-77
2023/09/11 08:26:02;;;;;;;12.40;7.70;;;;;;;23.73;76.63;97913.05;106350;1283;23022;-76
2023/09/11 08:28:30;;;;;;;9.90;7.50;;;;;;;23.77;74.52;97917.00;106425;1262;26164;-76
2023/09/11 08:30:58;;;;;;;9.70;6.70;;;;;;;23.80;73.02;97917.95;106237;1273;23084;-77
2023/09/11 08:33:26;;;;;;;9.60;7.50;;;;;;;23.83;73.92;97915.85;107238;1264;25945;-77
2023/09/11 08:36:04;;;;;;;8.40;7.50;;;;;;;23.87;71.58;97913.12;107169;1278;22577;-77
2023/09/11 08:38:32;;;;;;;12.30;7.90;;;;;;;23.91;73.07;97909.51;106955;1272;22644;-78
2023/09/11 08:41:04;;;;;;;15.00;7.60;;;;;;;24.00;71.93;97911.20;106687;1278;25367;-79
2023/09/11 08:43:33;;;;;;;12.00;7.00;;;;;;;24.04;69.65;97912.87;106752;1264;22583;-78
2023/09/11 08:46:03;;;;;;;11.40;7.10;;;;;;;24.03;69.56;97915.14;106834;1271;22633;-78
2023/09/11 08:48:35;;;;;;;9.70;8.10;;;;;;;24.09;70.36;97909.02;107197;1255;24216;-78
2023/09/11 08:51:11;;;;;;;16.40;7.30;;;;;;;24.21;69.67;97910.02;106763;1264;23826;-78
2023/09/11 08:53:41;;;;;;;9.60;7.30;;;;;;;24.30;68.34;97914.37;106786;1267;24250;-78
2023/09/11 08:56:11;;;;;;;10.40;7.50;;;;;;;24.40;67.33;97916.76;107257;1270;24294;-78
2023/09/11 08:58:40;;;;;;;17.10;7.50;;;;;;;24.42;67.66;97915.20;107188;1261;24427;-78
2023/09/11 09:01:10;;;;;;;11.60;7.50;;;;;;;24.49;67.24;97917.67;107167;1264;22528;-78
2023/09/11 09:03:40;;;;;;;12.00;7.20;;;;;;;24.55;65.49;97917.29;107210;1263;22706;-78
2023/09/11 09:06:09;;;;;;;8.70;7.20;;;;;;;24.62;66.64;97917.30;107306;1271;22970;-78
2023/09/11 09:08:38;;;;;;;11.60;7.40;;;;;;;24.68;65.54;97916.20;106823;1264;23112;-78
2023/09/11 09:11:06;;;;;;;13.20;7.70;;;;;;;24.72;65.44;97912.80;106743;1263;22535;-78
2023/09/11 09:13:35;;;;;;;9.10;7.70;;;;;;;24.77;64.56;97910.63;107219;1263;22652;-77
2023/09/11 09:16:03;;;;;;;10.70;7.80;;;;;;;24.77;65.30;97907.88;106870;1263;22527;-78
2023/09/11 09:18:32;;;;;;;8.90;7.20;;;;;;;24.88;65.93;97905.50;107342;1264;23011;-77
2023/09/11 09:21:00;;;;;;;15.20;7.40;;;;;;;25.03;65.48;97905.50;107157;1273;22654;-77
2023/09/11 09:23:33;;;;;;;17.40;8.10;;;;;;;25.14;63.99;97904.73;107164;1271;24256;-77
2023/09/11 09:26:09;;;;;;;8.20;7.10;;;;;;;25.19;65.08;97901.81;107270;1276;22646;-78
2023/09/11 09:28:51;;;;;;;9.70;7.20;;;;;;;25.37;66.32;97900.83;107262;1270;23206;-79
2023/09/11 09:31:24;;;;;;;9.30;7.10;;;;;;;25.58;65.74;97902.29;106990;1273;22782;-78
2023/09/11 09:33:55;;;;;;;15.60;7.30;;;;;;;25.74;65.89;97901.77;106775;1266;22700;-78
2023/09/11 09:36:25;;;;;;;11.40;6.60;;;;;;;25.89;65.32;97901.83;107220;1278;22544;-77
2023/09/11 09:38:53;;;;;;;12.80;6.80;;;;;;;26.04;65.70;97896.40;106692;1270;26505;-78
2023/09/11 09:41:23;;;;;;;10.50;6.80;;;;;;;26.19;64.31;97899.32;107038;1271;25309;-77
2023/09/11 09:43:53;;;;;;;11.50;7.00;;;;;;;26.28;65.10;97890.84;106702;1277;22653;-78
2023/09/11 09:46:22;;;;;;;11.50;6.80;;;;;;;26.41;64.15;97890.05;106834;1276;24237;-76
2023/09/11 09:48:51;;;;;;;7.80;6.30;;;;;;;26.51;63.79;97888.98;106740;1278;22563;-76
2023/09/11 09:51:21;;;;;;;8.00;5.90;;;;;;;26.62;63.66;97888.90;106714;1262;25328;-74
2023/09/11 09:53:53;;;;;;;11.50;6.60;;;;;;;26.72;61.95;97884.87;106749;1277;23006;-77
2023/09/11 09:56:21;;;;;;;8.00;6.50;;;;;;;26.78;61.53;97881.27;106780;1277;23906;-76
2023/09/11 09:58:49;;;;;;;13.10;6.20;;;;;;;26.91;61.79;97882.52;106848;1277;23463;-76
2023/09/11 10:01:22;;;;;;;9.40;6.30;;;;;;;27.02;60.63;97882.18;106738;1271;22534;-76
2023/09/11 10:03:52;;;;;;;11.50;7.00;;;;;;;27.08;60.37;97877.70;106836;1270;22809;-77
2023/09/11 10:06:31;;;;;;;14.00;6.50;;;;;;;27.15;60.32;97872.90;106773;1270;24244;-77
2023/09/11 10:09:05;;;;;;;13.30;6.70;;;;;;;27.29;60.17;97867.42;107002;1267;22660;-79
2023/09/11 10:11:35;;;;;;;9.30;7.20;;;;;;;27.37;58.48;97872.46;106745;1255;22598;-78
2023/09/11 10:14:06;;;;;;;11.90;7.00;;;;;;;27.37;57.43;97870.56;106824;1278;22651;-77
2023/09/11 10:16:35;;;;;;;10.20;6.10;;;;;;;27.28;58.03;97866.08;107157;1270;22531;-79
2023/09/11 10:19:04;;;;;;;9.70;5.90;;;;;;;27.37;58.64;97860.94;107272;1273;22539;-79
2023/09/11 10:21:32;;;;;;;11.30;6.60;;;;;;;27.50;58.79;97863.71;107228;1270;22530;-77
2023/09/11 10:24:01;;;;;;;9.90;6.00;;;;;;;27.63;58.37;97862.70;107189;1275;22604;-79
2023/09/11 10:26:47;;;;;;;10.10;6.80;;;;;;;27.77;58.49;97863.89;107182;1277;22917;-78
2023/09/11 10:29:51;;;;;;;9.90;6.80;;;;;;;27.82;56.17;97860.61;106717;1270;24192;-78
2023/09/11 10:32:26;;;;;;;12.70;6.60;;;;;;;27.86;57.03;97864.89;106547;1280;22567;-77
2023/09/11 10:34:55;;;;;;;11.80;7.00;;;;;;;27.94;55.77;97860.76;106235;1279;22595;-78
2023/09/11 10:37:24;;;;;;;8.60;7.00;;;;;;;27.90;55.25;97864.14;106207;1277;22537;-81
2023/09/11 10:39:53;;;;;;;12.80;6.30;;;;;;;27.84;54.10;97859.77;106620;1280;22600;-80
2023/09/11 10:42:21;;;;;;;12.30;6.90;;;;;;;27.81;54.52;97854.13;106513;1284;22550;-80
2023/09/11 10:44:53;;;;;;;10.30;7.20;;;;;;;27.87;54.35;97851.05;106569;1284;22679;-74
2023/09/11 10:47:22;;;;;;;12.90;7.40;;;;;;;27.98;54.99;97850.42;106167;1270;24281;-75
2023/09/11 10:49:50;;;;;;;10.20;6.40;;;;;;;28.12;54.57;97847.77;106109;1273;25543;-74
2023/09/11 10:52:20;;;;;;;8.50;6.70;;;;;;;28.20;53.11;97847.04;106122;1263;22531;-74
2023/09/11 10:54:49;;;;;;;10.70;7.30;;;;;;;28.16;53.60;97846.23;106176;1285;22536;-75
2023/09/11 10:57:17;;;;;;;10.60;6.40;;;;;;;28.22;53.14;97850.09;106270;1270;25377;-76
2023/09/11 10:59:46;;;;;;;12.30;6.90;;;;;;;28.30;52.74;97845.14;106116;1285;22599;-77
2023/09/11 11:02:14;;;;;;;10.80;6.20;;;;;;;28.44;53.26;97850.34;106579;1270;24383;-76
2023/09/11 11:04:42;;;;;;;13.50;6.50;;;;;;;28.57;52.86;97845.23;106262;1275;22591;-77
2023/09/11 11:07:12;;;;;;;9.50;6.30;;;;;;;28.62;52.73;97843.83;106255;1271;24244;-76
2023/09/11 11:09:41;;;;;;;10.40;5.80;;;;;;;28.77;52.82;97840.41;106556;1272;22527;-77
2023/09/11 11:12:13;;;;;;;11.40;6.80;;;;;;;28.96;52.34;97840.86;106860;1270;24461;-77
2023/09/11 11:14:41;;;;;;;12.20;6.30;;;;;;;28.93;49.66;97841.16;106909;1272;22534;-77
2023/09/11 11:17:12;;;;;;;8.50;6.20;;;;;;;28.80;50.02;97840.36;106753;1275;22531;-76
2023/09/11 11:20:00;;;;;;;13.70;6.30;;;;;;;28.86;51.12;97835.48;107172;1270;25412;-77
2023/09/11 11:22:31;;;;;;;11.10;6.50;;;;;;;29.10;50.42;97834.14;106596;1270;22680;-77
2023/09/11 11:25:05;;;;;;;10.80;5.80;;;;;;;29.08;47.26;97839.90;107185;1270;22520;-76
2023/09/11 11:27:33;;;;;;;9.40;5.80;;;;;;;28.94;46.47;97836.30;106658;1278;22524;-78